KARV/ARV METAR and TAF weather

Enter ICAO airport designator
Station Type Date Time Source
KARV METAR 2020/09/26 10:35 UTC NOAA

KARV 261035Z AUTO 00000KT 10SM OVC006 17/12 A2973 RMK AO2 T01660122


Station Type Date Time Source
KARV Decoded METAR 2020/09/26 10:35 UTC NOAA

Minocqua/Woodruff, Lakeland Airport/Noble F. Lee Memorial Field, WI, United States (KARV) 45-56N 089-44W
Sep 26, 2020 - 06:35 AM EDT / 2020.09.26 1035 UTC
Wind: Calm:0
Visibility: 10 mile(s):0
Sky conditions: overcast
Temperature: 61.9 F (16.6 C)
Dew Point: 54.0 F (12.2 C)
Relative Humidity: 75%
Pressure (altimeter): 29.73 in. Hg (1006 hPa)
ob: KARV 261035Z AUTO 00000KT 10SM OVC006 17/12 A2973 RMK AO2 T01660122
cycle: 10

Station Type Date Time Source
KARV TAF UTC NOAA

Error!

Example: see airport list